sensor_id;sensor_type;location;lat;lon;timestamp;temperature;humidity
21672;DHT22;10997;52.242;8.168;2023-04-01T00:02:41;9.50;99.90
21672;DHT22;10997;52.242;8.168;2023-04-01T00:07:42;9.50;99.90
21672;DHT22;10997;52.242;8.168;2023-04-01T00:12:43;9.50;99.90
21672;DHT22;10997;52.242;8.168;2023-04-01T00:17:44;9.50;99.90
21672;DHT22;10997;52.242;8.168;2023-04-01T00:22:45;9.50;99.90
21672;DHT22;10997;52.242;8.168;2023-04-01T00:27:46;9.50;99.90
21672;DHT22;10997;52.242;8.168;2023-04-01T00:32:46;9.50;99.90
21672;DHT22;10997;52.242;8.168;2023-04-01T00:37:47;9.50;99.90
21672;DHT22;10997;52.242;8.168;2023-04-01T00:42:48;9.50;99.90
21672;DHT22;10997;52.242;8.168;2023-04-01T00:47:48;9.50;99.90
21672;DHT22;10997;52.242;8.168;2023-04-01T00:52:49;9.40;99.90
21672;DHT22;10997;52.242;8.168;2023-04-01T00:57:52;9.40;99.90
21672;DHT22;10997;52.242;8.168;2023-04-01T01:02:53;9.50;99.90
21672;DHT22;10997;52.242;8.168;2023-04-01T01:18:28;9.40;99.90
21672;DHT22;10997;52.242;8.168;2023-04-01T01:34:32;9.30;99.90
21672;DHT22;10997;52.242;8.168;2023-04-01T01:39:37;9.30;99.90
21672;DHT22;10997;52.242;8.168;2023-04-01T01:44:39;9.30;99.90
21672;DHT22;10997;52.242;8.168;2023-04-01T01:49:43;9.30;99.90
21672;DHT22;10997;52.242;8.168;2023-04-01T01:54:52;9.30;99.90
21672;DHT22;10997;52.242;8.168;2023-04-01T02:00:06;9.30;99.90
21672;DHT22;10997;52.242;8.168;2023-04-01T02:05:22;9.30;99.90
21672;DHT22;10997;52.242;8.168;2023-04-01T02:10:25;9.30;99.90
21672;DHT22;10997;52.242;8.168;2023-04-01T02:15:27;9.30;99.90
21672;DHT22;10997;52.242;8.168;2023-04-01T02:20:32;9.30;99.90
21672;DHT22;10997;52.242;8.168;2023-04-01T02:25:35;9.30;99.90
21672;DHT22;10997;52.242;8.168;2023-04-01T02:30:38;9.30;99.90
21672;DHT22;10997;52.242;8.168;2023-04-01T02:35:40;9.30;99.90
21672;DHT22;10997;52.242;8.168;2023-04-01T02:40:47;9.20;99.90
21672;DHT22;10997;52.242;8.168;2023-04-01T02:45:48;9.30;99.90
21672;DHT22;10997;52.242;8.168;2023-04-01T02:50:48;9.30;99.90
21672;DHT22;10997;52.242;8.168;2023-04-01T02:55:49;9.20;99.90
21672;DHT22;10997;52.242;8.168;2023-04-01T03:00:52;9.20;99.90
21672;DHT22;10997;52.242;8.168;2023-04-01T03:05:52;9.20;99.90
21672;DHT22;10997;52.242;8.168;2023-04-01T03:10:55;9.20;99.90
21672;DHT22;10997;52.242;8.168;2023-04-01T03:15:56;9.30;99.90
21672;DHT22;10997;52.242;8.168;2023-04-01T03:20:56;9.20;99.90
21672;DHT22;10997;52.242;8.168;2023-04-01T03:25:57;9.20;99.90
21672;DHT22;10997;52.242;8.168;2023-04-01T03:30:57;9.20;99.90
21672;DHT22;10997;52.242;8.168;2023-04-01T03:35:58;9.10;99.90
21672;DHT22;10997;52.242;8.168;2023-04-01T03:40:59;9.10;99.90
21672;DHT22;10997;52.242;8.168;2023-04-01T03:45:59;9.10;99.90
21672;DHT22;10997;52.242;8.168;2023-04-01T03:51:00;9.10;99.90
21672;DHT22;10997;52.242;8.168;2023-04-01T03:56:08;9.10;99.90
21672;DHT22;10997;52.242;8.168;2023-04-01T04:01:19;9.10;99.90
21672;DHT22;10997;52.242;8.168;2023-04-01T04:06:21;9.10;99.90
21672;DHT22;10997;52.242;8.168;2023-04-01T04:11:22;9.10;99.90
21672;DHT22;10997;52.242;8.168;2023-04-01T04:16:23;9.10;99.90
21672;DHT22;10997;52.242;8.168;2023-04-01T04:21:23;9.10;99.90
21672;DHT22;10997;52.242;8.168;2023-04-01T04:26:24;9.10;99.90
21672;DHT22;10997;52.242;8.168;2023-04-01T04:31:26;9.10;99.90
21672;DHT22;10997;52.242;8.168;2023-04-01T04:36:27;9.10;99.90
21672;DHT22;10997;52.242;8.168;2023-04-01T04:41:27;9.10;99.90
21672;DHT22;10997;52.242;8.168;2023-04-01T04:46:28;9.10;99.90
21672;DHT22;10997;52.242;8.168;2023-04-01T04:51:29;9.10;99.90
21672;DHT22;10997;52.242;8.168;2023-04-01T04:56:29;9.00;99.90
21672;DHT22;10997;52.242;8.168;2023-04-01T05:01:31;9.00;99.90
21672;DHT22;10997;52.242;8.168;2023-04-01T05:06:31;9.00;99.90
21672;DHT22;10997;52.242;8.168;2023-04-01T05:11:32;9.00;99.90
21672;DHT22;10997;52.242;8.168;2023-04-01T05:16:33;9.00;99.90
21672;DHT22;10997;52.242;8.168;2023-04-01T05:21:33;9.00;99.90
21672;DHT22;10997;52.242;8.168;2023-04-01T05:26:34;9.00;99.90
21672;DHT22;10997;52.242;8.168;2023-04-01T05:31:35;9.00;99.90
21672;DHT22;10997;52.242;8.168;2023-04-01T05:36:36;9.00;99.90
21672;DHT22;10997;52.242;8.168;2023-04-01T05:41:37;9.10;99.90
21672;DHT22;10997;52.242;8.168;2023-04-01T05:46:38;9.00;99.90
21672;DHT22;10997;52.242;8.168;2023-04-01T05:51:39;9.00;99.90
21672;DHT22;10997;52.242;8.168;2023-04-01T05:56:39;9.10;99.90
21672;DHT22;10997;52.242;8.168;2023-04-01T06:01:40;9.10;99.90
21672;DHT22;10997;52.242;8.168;2023-04-01T06:06:41;9.10;99.90
21672;DHT22;10997;52.242;8.168;2023-04-01T06:12:05;9.10;99.90
21672;DHT22;10997;52.242;8.168;2023-04-01T06:33:20;9.30;99.90
21672;DHT22;10997;52.242;8.168;2023-04-01T06:43:54;9.40;99.90
21672;DHT22;10997;52.242;8.168;2023-04-01T06:54:26;9.40;99.90
21672;DHT22;10997;52.242;8.168;2023-04-01T06:59:32;9.40;99.90
21672;DHT22;10997;52.242;8.168;2023-04-01T07:04:39;9.40;99.90
21672;DHT22;10997;52.242;8.168;2023-04-01T07:09:48;9.50;99.90
21672;DHT22;10997;52.242;8.168;2023-04-01T07:14:51;9.40;99.90
21672;DHT22;10997;52.242;8.168;2023-04-01T07:20:19;9.50;99.90
21672;DHT22;10997;52.242;8.168;2023-04-01T07:25:24;9.50;99.90
21672;DHT22;10997;52.242;8.168;2023-04-01T07:30:29;9.50;99.90
21672;DHT22;10997;52.242;8.168;2023-04-01T07:35:48;9.60;99.90
21672;DHT22;10997;52.242;8.168;2023-04-01T07:42:05;9.60;99.90
21672;DHT22;10997;52.242;8.168;2023-04-01T08:03:08;10.00;99.90
21672;DHT22;10997;52.242;8.168;2023-04-01T08:19:09;10.30;99.90
21672;DHT22;10997;52.242;8.168;2023-04-01T08:24:29;10.40;99.90
21672;DHT22;10997;52.242;8.168;2023-04-01T08:29:50;10.60;99.90
21672;DHT22;10997;52.242;8.168;2023-04-01T08:35:25;10.70;99.90
21672;DHT22;10997;52.242;8.168;2023-04-01T08:51:52;10.70;99.90
21672;DHT22;10997;52.242;8.168;2023-04-01T08:57:01;10.90;99.90
21672;DHT22;10997;52.242;8.168;2023-04-01T09:07:53;10.90;99.90
21672;DHT22;10997;52.242;8.168;2023-04-01T09:13:23;11.00;99.90
21672;DHT22;10997;52.242;8.168;2023-04-01T09:34:53;11.60;99.90
21672;DHT22;10997;52.242;8.168;2023-04-01T09:40:15;11.60;99.90
21672;DHT22;10997;52.242;8.168;2023-04-01T09:51:09;12.20;99.90
21672;DHT22;10997;52.242;8.168;2023-04-01T09:56:45;12.30;99.90
21672;DHT22;10997;52.242;8.168;2023-04-01T10:23:52;13.50;99.90
21672;DHT22;10997;52.242;8.168;2023-04-01T10:50:39;12.90;99.90
21672;DHT22;10997;52.242;8.168;2023-04-01T11:07:01;12.90;99.90
21672;DHT22;10997;52.242;8.168;2023-04-01T11:18:03;13.60;99.90
21672;DHT22;10997;52.242;8.168;2023-04-01T11:23:24;13.90;99.90
21672;DHT22;10997;52.242;8.168;2023-04-01T11:28:48;14.00;99.90
21672;DHT22;10997;52.242;8.168;2023-04-01T11:44:33;14.30;99.90
21672;DHT22;10997;52.242;8.168;2023-04-01T11:55:11;14.20;99.90
21672;DHT22;10997;52.242;8.168;2023-04-01T12:06:02;13.30;99.90
21672;DHT22;10997;52.242;8.168;2023-04-01T12:22:26;13.10;99.90
21672;DHT22;10997;52.242;8.168;2023-04-01T12:39:33;13.50;99.90
21672;DHT22;10997;52.242;8.168;2023-04-01T13:16:14;12.90;99.90
21672;DHT22;10997;52.242;8.168;2023-04-01T13:42:31;13.10;99.90
21672;DHT22;10997;52.242;8.168;2023-04-01T13:53:23;12.80;99.90
21672;DHT22;10997;52.242;8.168;2023-04-01T13:58:43;12.70;99.90
21672;DHT22;10997;52.242;8.168;2023-04-01T14:09:25;12.60;99.90
21672;DHT22;10997;52.242;8.168;2023-04-01T14:14:51;12.50;99.90
21672;DHT22;10997;52.242;8.168;2023-04-01T14:31:10;12.30;99.90
21672;DHT22;10997;52.242;8.168;2023-04-01T14:36:29;12.30;99.90
21672;DHT22;10997;52.242;8.168;2023-04-01T14:47:13;12.40;99.90
21672;DHT22;10997;52.242;8.168;2023-04-01T14:52:28;12.30;99.90
21672;DHT22;10997;52.242;8.168;2023-04-01T14:57:31;12.10;99.90
21672;DHT22;10997;52.242;8.168;2023-04-01T15:02:57;11.90;99.90
21672;DHT22;10997;52.242;8.168;2023-04-01T15:08:28;11.90;99.90
21672;DHT22;10997;52.242;8.168;2023-04-01T15:19:18;11.80;99.90
21672;DHT22;10997;52.242;8.168;2023-04-01T15:29:43;11.80;99.90
21672;DHT22;10997;52.242;8.168;2023-04-01T15:35:19;11.70;99.90
21672;DHT22;10997;52.242;8.168;2023-04-01T15:40:47;11.60;99.90
21672;DHT22;10997;52.242;8.168;2023-04-01T15:51:53;11.20;99.90
21672;DHT22;10997;52.242;8.168;2023-04-01T15:57:37;10.90;99.90
21672;DHT22;10997;52.242;8.168;2023-04-01T16:13:48;10.50;99.90
21672;DHT22;10997;52.242;8.168;2023-04-01T16:19:13;10.30;99.90
21672;DHT22;10997;52.242;8.168;2023-04-01T16:29:56;10.00;99.90
21672;DHT22;10997;52.242;8.168;2023-04-01T16:35:16;9.80;99.90
21672;DHT22;10997;52.242;8.168;2023-04-01T16:51:13;9.60;99.90
21672;DHT22;10997;52.242;8.168;2023-04-01T16:56:24;9.50;99.90
21672;DHT22;10997;52.242;8.168;2023-04-01T17:01:52;9.40;99.90
21672;DHT22;10997;52.242;8.168;2023-04-01T17:06:59;9.40;99.90
21672;DHT22;10997;52.242;8.168;2023-04-01T17:17:33;9.20;99.90
21672;DHT22;10997;52.242;8.168;2023-04-01T17:22:41;9.20;99.90
21672;DHT22;10997;52.242;8.168;2023-04-01T17:28:16;9.10;99.90
21672;DHT22;10997;52.242;8.168;2023-04-01T17:39:30;8.90;99.90
21672;DHT22;10997;52.242;8.168;2023-04-01T18:17:18;8.30;99.90
21672;DHT22;10997;52.242;8.168;2023-04-01T18:22:40;8.20;99.90
21672;DHT22;10997;52.242;8.168;2023-04-01T18:27:45;8.10;99.90
21672;DHT22;10997;52.242;8.168;2023-04-01T18:38:29;7.90;99.90
21672;DHT22;10997;52.242;8.168;2023-04-01T18:49:08;7.70;99.90
21672;DHT22;10997;52.242;8.168;2023-04-01T18:54:32;7.70;99.90
21672;DHT22;10997;52.242;8.168;2023-04-01T19:05:04;7.60;99.90
21672;DHT22;10997;52.242;8.168;2023-04-01T19:15:52;7.60;99.90
21672;DHT22;10997;52.242;8.168;2023-04-01T19:21:12;7.50;99.90
21672;DHT22;10997;52.242;8.168;2023-04-01T19:26:29;7.40;99.90
21672;DHT22;10997;52.242;8.168;2023-04-01T19:43:12;7.30;99.90
21672;DHT22;10997;52.242;8.168;2023-04-01T19:48:44;7.20;99.90
21672;DHT22;10997;52.242;8.168;2023-04-01T19:54:03;7.10;99.90
21672;DHT22;10997;52.242;8.168;2023-04-01T19:59:20;7.00;99.90
21672;DHT22;10997;52.242;8.168;2023-04-01T20:04:34;7.00;99.90
21672;DHT22;10997;52.242;8.168;2023-04-01T20:14:46;6.90;99.90
21672;DHT22;10997;52.242;8.168;2023-04-01T20:25:30;6.80;99.90
21672;DHT22;10997;52.242;8.168;2023-04-01T20:36:22;6.80;99.90
21672;DHT22;10997;52.242;8.168;2023-04-01T20:52:02;6.60;99.90
21672;DHT22;10997;52.242;8.168;2023-04-01T20:57:11;6.60;99.90
21672;DHT22;10997;52.242;8.168;2023-04-01T21:02:16;6.50;99.90
21672;DHT22;10997;52.242;8.168;2023-04-01T21:29:38;6.30;99.90
21672;DHT22;10997;52.242;8.168;2023-04-01T21:34:43;6.20;99.90
21672;DHT22;10997;52.242;8.168;2023-04-01T21:45:19;6.00;99.90
21672;DHT22;10997;52.242;8.168;2023-04-01T21:50:47;6.00;99.90
21672;DHT22;10997;52.242;8.168;2023-04-01T22:07:19;5.90;99.90
21672;DHT22;10997;52.242;8.168;2023-04-01T22:12:48;5.80;99.90
21672;DHT22;10997;52.242;8.168;2023-04-01T22:17:58;5.80;99.90
21672;DHT22;10997;52.242;8.168;2023-04-01T22:28:55;5.70;99.90
21672;DHT22;10997;52.242;8.168;2023-04-01T22:50:16;5.60;99.90
21672;DHT22;10997;52.242;8.168;2023-04-01T22:55:24;5.60;99.90
21672;DHT22;10997;52.242;8.168;2023-04-01T23:00:33;5.60;99.90
21672;DHT22;10997;52.242;8.168;2023-04-01T23:05:41;5.40;99.90
21672;DHT22;10997;52.242;8.168;2023-04-01T23:10:49;5.40;99.90
21672;DHT22;10997;52.242;8.168;2023-04-01T23:15:54;5.30;99.90
21672;DHT22;10997;52.242;8.168;2023-04-01T23:21:18;5.30;99.90
21672;DHT22;10997;52.242;8.168;2023-04-01T23:26:23;5.30;99.90
21672;DHT22;10997;52.242;8.168;2023-04-01T23:36:51;5.20;99.90
21672;DHT22;10997;52.242;8.168;2023-04-01T23:42:12;5.20;99.90
21672;DHT22;10997;52.242;8.168;2023-04-01T23:47:17;5.20;99.90
21672;DHT22;10997;52.242;8.168;2023-04-01T23:52:25;5.10;99.90
21672;DHT22;10997;52.242;8.168;2023-04-01T23:57:30;5.00;99.90
